sensor_id;sensor_type;location;lat;lon;timestamp;P1;durP1;ratioP1;P2;durP2;ratioP2
61413;SDS011;47279;52.426;10.488;2022-09-03T00:02:05;0.80;;;0.80;;
61413;SDS011;47279;52.426;10.488;2022-09-03T00:04:42;1.00;;;0.90;;
61413;SDS011;47279;52.426;10.488;2022-09-03T00:07:22;1.10;;;0.90;;
61413;SDS011;47279;52.426;10.488;2022-09-03T00:09:53;0.90;;;0.90;;
61413;SDS011;47279;52.426;10.488;2022-09-03T00:12:21;1.88;;;1.20;;
61413;SDS011;47279;52.426;10.488;2022-09-03T00:14:56;0.90;;;0.90;;
61413;SDS011;47279;52.426;10.488;2022-09-03T00:17:30;0.95;;;0.95;;
61413;SDS011;47279;52.426;10.488;2022-09-03T00:22:27;1.00;;;0.90;;
61413;SDS011;47279;52.426;10.488;2022-09-03T00:24:54;1.10;;;1.00;;
61413;SDS011;47279;52.426;10.488;2022-09-03T00:27:23;0.80;;;0.80;;
61413;SDS011;47279;52.426;10.488;2022-09-03T00:29:58;1.45;;;0.90;;
61413;SDS011;47279;52.426;10.488;2022-09-03T00:32:39;1.00;;;1.00;;
61413;SDS011;47279;52.426;10.488;2022-09-03T00:35:08;2.65;;;1.10;;
61413;SDS011;47279;52.426;10.488;2022-09-03T00:37:35;1.00;;;0.93;;
61413;SDS011;47279;52.426;10.488;2022-09-03T00:40:01;1.05;;;0.95;;
61413;SDS011;47279;52.426;10.488;2022-09-03T00:45:02;1.00;;;1.00;;
61413;SDS011;47279;52.426;10.488;2022-09-03T00:50:24;1.02;;;0.90;;
61413;SDS011;47279;52.426;10.488;2022-09-03T01:00:33;1.00;;;0.90;;
61413;SDS011;47279;52.426;10.488;2022-09-03T01:04:03;1.00;;;1.00;;
61413;SDS011;47279;52.426;10.488;2022-09-03T01:11:28;1.10;;;1.00;;
61413;SDS011;47279;52.426;10.488;2022-09-03T01:14:02;1.00;;;0.90;;
61413;SDS011;47279;52.426;10.488;2022-09-03T01:16:39;1.77;;;0.93;;
61413;SDS011;47279;52.426;10.488;2022-09-03T01:19:12;1.23;;;1.13;;
61413;SDS011;47279;52.426;10.488;2022-09-03T01:29:55;1.10;;;1.00;;
61413;SDS011;47279;52.426;10.488;2022-09-03T01:32:29;1.13;;;1.02;;
61413;SDS011;47279;52.426;10.488;2022-09-03T01:35:07;1.23;;;0.90;;
61413;SDS011;47279;52.426;10.488;2022-09-03T01:43:00;1.10;;;0.88;;
61413;SDS011;47279;52.426;10.488;2022-09-03T01:45:39;1.15;;;1.05;;
61413;SDS011;47279;52.426;10.488;2022-09-03T01:48:21;1.30;;;1.00;;
61413;SDS011;47279;52.426;10.488;2022-09-03T01:53:27;0.98;;;0.88;;
61413;SDS011;47279;52.426;10.488;2022-09-03T01:58:32;0.90;;;0.90;;
61413;SDS011;47279;52.426;10.488;2022-09-03T02:01:04;1.02;;;0.90;;
61413;SDS011;47279;52.426;10.488;2022-09-03T02:03:32;1.08;;;0.90;;
61413;SDS011;47279;52.426;10.488;2022-09-03T02:05:59;1.20;;;1.10;;
61413;SDS011;47279;52.426;10.488;2022-09-03T02:08:25;0.90;;;0.90;;
61413;SDS011;47279;52.426;10.488;2022-09-03T02:10:53;0.80;;;0.80;;
61413;SDS011;47279;52.426;10.488;2022-09-03T02:13:21;0.82;;;0.82;;
61413;SDS011;47279;52.426;10.488;2022-09-03T02:15:49;0.95;;;0.88;;
61413;SDS011;47279;52.426;10.488;2022-09-03T02:18:18;1.20;;;1.00;;
61413;SDS011;47279;52.426;10.488;2022-09-03T02:20:45;0.85;;;0.85;;
61413;SDS011;47279;52.426;10.488;2022-09-03T02:23:12;1.30;;;0.95;;
61413;SDS011;47279;52.426;10.488;2022-09-03T02:25:39;0.80;;;0.80;;
61413;SDS011;47279;52.426;10.488;2022-09-03T02:28:06;1.67;;;1.05;;
61413;SDS011;47279;52.426;10.488;2022-09-03T02:30:33;0.98;;;0.88;;
61413;SDS011;47279;52.426;10.488;2022-09-03T02:32:59;1.00;;;0.90;;
61413;SDS011;47279;52.426;10.488;2022-09-03T02:35:25;1.60;;;0.93;;
61413;SDS011;47279;52.426;10.488;2022-09-03T02:37:51;1.10;;;1.00;;
61413;SDS011;47279;52.426;10.488;2022-09-03T02:40:17;0.77;;;0.77;;
61413;SDS011;47279;52.426;10.488;2022-09-03T02:42:44;1.17;;;0.90;;
61413;SDS011;47279;52.426;10.488;2022-09-03T02:47:44;1.00;;;1.00;;
61413;SDS011;47279;52.426;10.488;2022-09-03T02:50:10;1.08;;;1.00;;
61413;SDS011;47279;52.426;10.488;2022-09-03T02:52:36;0.93;;;0.93;;
61413;SDS011;47279;52.426;10.488;2022-09-03T02:55:02;0.70;;;0.70;;
61413;SDS011;47279;52.426;10.488;2022-09-03T02:57:28;1.17;;;0.90;;
61413;SDS011;47279;52.426;10.488;2022-09-03T02:59:54;0.80;;;0.80;;
61413;SDS011;47279;52.426;10.488;2022-09-03T03:02:20;0.93;;;0.85;;
61413;SDS011;47279;52.426;10.488;2022-09-03T03:04:46;0.80;;;0.80;;
61413;SDS011;47279;52.426;10.488;2022-09-03T03:07:12;0.90;;;0.90;;
61413;SDS011;47279;52.426;10.488;2022-09-03T03:09:38;0.80;;;0.80;;
61413;SDS011;47279;52.426;10.488;2022-09-03T03:12:04;1.10;;;1.00;;
61413;SDS011;47279;52.426;10.488;2022-09-03T03:14:31;1.10;;;0.95;;
61413;SDS011;47279;52.426;10.488;2022-09-03T03:16:57;1.05;;;0.95;;
61413;SDS011;47279;52.426;10.488;2022-09-03T03:19:22;0.90;;;0.88;;
61413;SDS011;47279;52.426;10.488;2022-09-03T03:21:48;0.80;;;0.80;;
61413;SDS011;47279;52.426;10.488;2022-09-03T03:24:14;1.02;;;0.93;;
61413;SDS011;47279;52.426;10.488;2022-09-03T03:26:40;0.90;;;0.90;;
61413;SDS011;47279;52.426;10.488;2022-09-03T03:29:06;0.80;;;0.80;;
61413;SDS011;47279;52.426;10.488;2022-09-03T03:31:32;1.17;;;1.00;;
61413;SDS011;47279;52.426;10.488;2022-09-03T03:34:00;1.05;;;0.95;;
61413;SDS011;47279;52.426;10.488;2022-09-03T03:36:30;1.00;;;0.90;;
61413;SDS011;47279;52.426;10.488;2022-09-03T03:38:57;1.05;;;1.00;;
61413;SDS011;47279;52.426;10.488;2022-09-03T03:41:25;0.80;;;0.80;;
61413;SDS011;47279;52.426;10.488;2022-09-03T03:43:54;1.38;;;1.05;;
61413;SDS011;47279;52.426;10.488;2022-09-03T03:46:21;1.20;;;0.93;;
61413;SDS011;47279;52.426;10.488;2022-09-03T03:48:48;1.02;;;0.93;;
61413;SDS011;47279;52.426;10.488;2022-09-03T03:51:14;1.85;;;1.20;;
61413;SDS011;47279;52.426;10.488;2022-09-03T03:53:40;1.45;;;0.90;;
61413;SDS011;47279;52.426;10.488;2022-09-03T03:56:08;1.15;;;1.05;;
61413;SDS011;47279;52.426;10.488;2022-09-03T03:58:34;0.88;;;0.88;;
61413;SDS011;47279;52.426;10.488;2022-09-03T04:01:05;0.80;;;0.80;;
61413;SDS011;47279;52.426;10.488;2022-09-03T04:05:57;1.05;;;0.80;;
61413;SDS011;47279;52.426;10.488;2022-09-03T04:08:24;1.17;;;1.08;;
61413;SDS011;47279;52.426;10.488;2022-09-03T04:10:50;1.00;;;0.90;;
61413;SDS011;47279;52.426;10.488;2022-09-03T04:13:16;1.00;;;0.90;;
61413;SDS011;47279;52.426;10.488;2022-09-03T04:15:43;0.90;;;0.90;;
61413;SDS011;47279;52.426;10.488;2022-09-03T04:18:09;1.20;;;0.80;;
61413;SDS011;47279;52.426;10.488;2022-09-03T04:20:35;1.17;;;0.90;;
61413;SDS011;47279;52.426;10.488;2022-09-03T04:23:01;1.23;;;0.88;;
61413;SDS011;47279;52.426;10.488;2022-09-03T04:25:27;0.90;;;0.70;;
61413;SDS011;47279;52.426;10.488;2022-09-03T04:27:53;1.00;;;0.90;;
61413;SDS011;47279;52.426;10.488;2022-09-03T04:30:19;1.00;;;0.90;;
61413;SDS011;47279;52.426;10.488;2022-09-03T04:32:48;1.35;;;1.25;;
61413;SDS011;47279;52.426;10.488;2022-09-03T04:35:17;0.93;;;0.88;;
61413;SDS011;47279;52.426;10.488;2022-09-03T04:37:44;1.00;;;0.88;;
61413;SDS011;47279;52.426;10.488;2022-09-03T04:40:10;1.20;;;1.10;;
61413;SDS011;47279;52.426;10.488;2022-09-03T04:42:36;1.08;;;0.98;;
61413;SDS011;47279;52.426;10.488;2022-09-03T04:45:02;0.90;;;0.90;;
61413;SDS011;47279;52.426;10.488;2022-09-03T04:47:28;1.20;;;1.10;;
61413;SDS011;47279;52.426;10.488;2022-09-03T04:49:54;1.00;;;0.90;;
61413;SDS011;47279;52.426;10.488;2022-09-03T04:52:21;0.93;;;0.80;;
61413;SDS011;47279;52.426;10.488;2022-09-03T04:54:46;1.10;;;1.00;;
61413;SDS011;47279;52.426;10.488;2022-09-03T04:57:12;0.90;;;0.80;;
61413;SDS011;47279;52.426;10.488;2022-09-03T04:59:38;1.10;;;1.00;;
61413;SDS011;47279;52.426;10.488;2022-09-03T05:02:05;0.70;;;0.70;;
61413;SDS011;47279;52.426;10.488;2022-09-03T05:04:32;0.95;;;0.85;;
61413;SDS011;47279;52.426;10.488;2022-09-03T05:06:58;0.73;;;0.73;;
61413;SDS011;47279;52.426;10.488;2022-09-03T05:09:23;0.75;;;0.75;;
61413;SDS011;47279;52.426;10.488;2022-09-03T05:11:49;0.90;;;0.90;;
61413;SDS011;47279;52.426;10.488;2022-09-03T05:14:15;1.10;;;1.00;;
61413;SDS011;47279;52.426;10.488;2022-09-03T05:16:41;1.15;;;1.00;;
61413;SDS011;47279;52.426;10.488;2022-09-03T05:19:07;1.05;;;0.95;;
61413;SDS011;47279;52.426;10.488;2022-09-03T05:21:34;1.05;;;0.95;;
61413;SDS011;47279;52.426;10.488;2022-09-03T05:24:01;1.13;;;1.05;;
61413;SDS011;47279;52.426;10.488;2022-09-03T05:26:31;1.00;;;0.90;;
61413;SDS011;47279;52.426;10.488;2022-09-03T05:28:58;1.02;;;0.93;;
61413;SDS011;47279;52.426;10.488;2022-09-03T05:31:25;0.85;;;0.82;;
61413;SDS011;47279;52.426;10.488;2022-09-03T05:33:53;0.80;;;0.80;;
61413;SDS011;47279;52.426;10.488;2022-09-03T05:36:22;1.40;;;0.90;;
61413;SDS011;47279;52.426;10.488;2022-09-03T05:38:48;0.88;;;0.80;;
61413;SDS011;47279;52.426;10.488;2022-09-03T05:41:15;1.00;;;0.90;;
61413;SDS011;47279;52.426;10.488;2022-09-03T05:43:42;1.08;;;0.80;;
61413;SDS011;47279;52.426;10.488;2022-09-03T05:46:09;0.95;;;0.90;;
61413;SDS011;47279;52.426;10.488;2022-09-03T05:48:36;1.38;;;1.10;;
61413;SDS011;47279;52.426;10.488;2022-09-03T05:53:28;1.55;;;0.90;;
61413;SDS011;47279;52.426;10.488;2022-09-03T05:55:55;0.73;;;0.68;;
61413;SDS011;47279;52.426;10.488;2022-09-03T05:58:22;1.52;;;0.90;;
61413;SDS011;47279;52.426;10.488;2022-09-03T06:00:49;1.10;;;0.90;;
61413;SDS011;47279;52.426;10.488;2022-09-03T06:03:15;0.80;;;0.80;;
61413;SDS011;47279;52.426;10.488;2022-09-03T06:05:48;1.45;;;0.90;;
61413;SDS011;47279;52.426;10.488;2022-09-03T06:08:14;0.90;;;0.90;;
61413;SDS011;47279;52.426;10.488;2022-09-03T06:10:40;0.90;;;0.90;;
61413;SDS011;47279;52.426;10.488;2022-09-03T06:13:06;1.00;;;0.90;;
61413;SDS011;47279;52.426;10.488;2022-09-03T06:15:32;1.10;;;1.00;;
61413;SDS011;47279;52.426;10.488;2022-09-03T06:17:58;1.02;;;0.90;;
61413;SDS011;47279;52.426;10.488;2022-09-03T06:20:24;1.27;;;0.82;;
61413;SDS011;47279;52.426;10.488;2022-09-03T06:22:52;0.80;;;0.80;;
61413;SDS011;47279;52.426;10.488;2022-09-03T06:25:18;0.80;;;0.70;;
61413;SDS011;47279;52.426;10.488;2022-09-03T06:27:44;1.05;;;0.95;;
61413;SDS011;47279;52.426;10.488;2022-09-03T06:30:11;1.50;;;1.00;;
61413;SDS011;47279;52.426;10.488;2022-09-03T06:32:47;0.80;;;0.80;;
61413;SDS011;47279;52.426;10.488;2022-09-03T06:35:17;1.08;;;0.95;;
61413;SDS011;47279;52.426;10.488;2022-09-03T06:37:43;1.00;;;0.90;;
61413;SDS011;47279;52.426;10.488;2022-09-03T06:40:09;0.98;;;0.90;;
61413;SDS011;47279;52.426;10.488;2022-09-03T06:42:44;1.38;;;1.08;;
61413;SDS011;47279;52.426;10.488;2022-09-03T06:45:19;1.17;;;0.90;;
61413;SDS011;47279;52.426;10.488;2022-09-03T06:47:45;1.08;;;0.80;;
61413;SDS011;47279;52.426;10.488;2022-09-03T06:50:11;0.98;;;0.95;;
61413;SDS011;47279;52.426;10.488;2022-09-03T06:52:37;1.48;;;0.90;;
61413;SDS011;47279;52.426;10.488;2022-09-03T06:55:03;1.10;;;1.00;;
61413;SDS011;47279;52.426;10.488;2022-09-03T06:57:29;1.13;;;1.02;;
61413;SDS011;47279;52.426;10.488;2022-09-03T06:59:55;1.58;;;0.90;;
61413;SDS011;47279;52.426;10.488;2022-09-03T07:02:21;1.30;;;0.90;;
61413;SDS011;47279;52.426;10.488;2022-09-03T07:04:47;1.58;;;0.90;;
61413;SDS011;47279;52.426;10.488;2022-09-03T07:07:13;1.55;;;0.90;;
61413;SDS011;47279;52.426;10.488;2022-09-03T07:09:40;1.63;;;1.33;;
61413;SDS011;47279;52.426;10.488;2022-09-03T07:12:06;0.90;;;0.90;;
61413;SDS011;47279;52.426;10.488;2022-09-03T07:14:34;1.00;;;0.90;;
61413;SDS011;47279;52.426;10.488;2022-09-03T07:17:00;0.75;;;0.75;;
61413;SDS011;47279;52.426;10.488;2022-09-03T07:19:26;1.02;;;1.00;;
61413;SDS011;47279;52.426;10.488;2022-09-03T07:21:52;1.02;;;0.90;;
61413;SDS011;47279;52.426;10.488;2022-09-03T07:24:18;1.30;;;1.10;;
61413;SDS011;47279;52.426;10.488;2022-09-03T07:26:45;1.30;;;1.00;;
61413;SDS011;47279;52.426;10.488;2022-09-03T07:29:13;1.90;;;0.80;;
61413;SDS011;47279;52.426;10.488;2022-09-03T07:31:43;1.20;;;1.00;;
61413;SDS011;47279;52.426;10.488;2022-09-03T07:34:10;1.10;;;0.98;;
61413;SDS011;47279;52.426;10.488;2022-09-03T07:36:40;0.93;;;0.85;;
61413;SDS011;47279;52.426;10.488;2022-09-03T07:39:07;1.10;;;0.90;;
61413;SDS011;47279;52.426;10.488;2022-09-03T07:41:33;0.88;;;0.80;;
61413;SDS011;47279;52.426;10.488;2022-09-03T07:43:59;1.08;;;0.98;;
61413;SDS011;47279;52.426;10.488;2022-09-03T07:46:30;0.88;;;0.88;;
61413;SDS011;47279;52.426;10.488;2022-09-03T07:48:57;0.80;;;0.80;;
61413;SDS011;47279;52.426;10.488;2022-09-03T07:51:27;0.98;;;0.88;;
61413;SDS011;47279;52.426;10.488;2022-09-03T07:53:54;0.80;;;0.80;;
61413;SDS011;47279;52.426;10.488;2022-09-03T07:56:21;0.70;;;0.70;;
61413;SDS011;47279;52.426;10.488;2022-09-03T07:58:47;1.25;;;0.90;;
61413;SDS011;47279;52.426;10.488;2022-09-03T08:01:15;0.98;;;0.90;;
61413;SDS011;47279;52.426;10.488;2022-09-03T08:03:42;1.05;;;0.90;;
61413;SDS011;47279;52.426;10.488;2022-09-03T08:06:09;1.23;;;0.88;;
61413;SDS011;47279;52.426;10.488;2022-09-03T08:08:35;1.08;;;0.90;;
61413;SDS011;47279;52.426;10.488;2022-09-03T08:13:39;0.98;;;0.90;;
61413;SDS011;47279;52.426;10.488;2022-09-03T08:16:07;0.77;;;0.77;;
61413;SDS011;47279;52.426;10.488;2022-09-03T08:18:33;1.13;;;0.93;;
61413;SDS011;47279;52.426;10.488;2022-09-03T08:21:04;0.95;;;0.90;;
61413;SDS011;47279;52.426;10.488;2022-09-03T08:23:31;0.93;;;0.93;;
61413;SDS011;47279;52.426;10.488;2022-09-03T08:25:58;0.90;;;0.90;;
61413;SDS011;47279;52.426;10.488;2022-09-03T08:28:24;1.15;;;0.88;;
61413;SDS011;47279;52.426;10.488;2022-09-03T08:30:50;1.05;;;0.98;;
61413;SDS011;47279;52.426;10.488;2022-09-03T08:33:16;1.20;;;0.90;;
61413;SDS011;47279;52.426;10.488;2022-09-03T08:36:00;1.23;;;0.90;;
61413;SDS011;47279;52.426;10.488;2022-09-03T08:38:28;1.08;;;0.95;;
61413;SDS011;47279;52.426;10.488;2022-09-03T08:41:01;1.63;;;0.90;;
61413;SDS011;47279;52.426;10.488;2022-09-03T08:43:27;3.10;;;1.10;;
61413;SDS011;47279;52.426;10.488;2022-09-03T08:45:53;0.80;;;0.80;;
61413;SDS011;47279;52.426;10.488;2022-09-03T08:48:20;1.00;;;0.90;;
61413;SDS011;47279;52.426;10.488;2022-09-03T08:50:48;1.10;;;0.90;;
61413;SDS011;47279;52.426;10.488;2022-09-03T08:53:21;1.33;;;1.20;;
61413;SDS011;47279;52.426;10.488;2022-09-03T08:58:33;2.13;;;1.00;;
61413;SDS011;47279;52.426;10.488;2022-09-03T09:01:04;1.83;;;0.88;;
61413;SDS011;47279;52.426;10.488;2022-09-03T09:09:02;0.85;;;0.85;;
61413;SDS011;47279;52.426;10.488;2022-09-03T09:11:45;1.23;;;0.82;;
61413;SDS011;47279;52.426;10.488;2022-09-03T09:16:46;1.42;;;1.00;;
61413;SDS011;47279;52.426;10.488;2022-09-03T09:21:46;1.00;;;0.90;;
61413;SDS011;47279;52.426;10.488;2022-09-03T09:24:18;1.20;;;0.98;;
61413;SDS011;47279;52.426;10.488;2022-09-03T09:26:47;0.98;;;0.95;;
61413;SDS011;47279;52.426;10.488;2022-09-03T09:29:13;1.15;;;1.00;;
61413;SDS011;47279;52.426;10.488;2022-09-03T09:31:40;1.13;;;0.90;;
61413;SDS011;47279;52.426;10.488;2022-09-03T09:34:10;1.73;;;1.17;;
61413;SDS011;47279;52.426;10.488;2022-09-03T09:36:49;1.80;;;1.00;;
61413;SDS011;47279;52.426;10.488;2022-09-03T09:39:16;0.93;;;0.82;;
61413;SDS011;47279;52.426;10.488;2022-09-03T09:41:43;0.93;;;0.90;;
61413;SDS011;47279;52.426;10.488;2022-09-03T09:44:21;1.02;;;0.93;;
61413;SDS011;47279;52.426;10.488;2022-09-03T09:46:47;1.00;;;0.90;;
61413;SDS011;47279;52.426;10.488;2022-09-03T09:49:25;1.13;;;0.90;;
61413;SDS011;47279;52.426;10.488;2022-09-03T09:52:01;1.65;;;0.80;;
61413;SDS011;47279;52.426;10.488;2022-09-03T09:54:28;1.20;;;1.00;;
61413;SDS011;47279;52.426;10.488;2022-09-03T09:56:58;1.83;;;1.08;;
61413;SDS011;47279;52.426;10.488;2022-09-03T09:59:24;2.72;;;1.00;;
61413;SDS011;47279;52.426;10.488;2022-09-03T10:01:50;1.42;;;0.80;;
61413;SDS011;47279;52.426;10.488;2022-09-03T10:04:23;0.75;;;0.75;;
61413;SDS011;47279;52.426;10.488;2022-09-03T10:06:54;1.23;;;1.10;;
61413;SDS011;47279;52.426;10.488;2022-09-03T10:09:25;1.27;;;0.90;;
61413;SDS011;47279;52.426;10.488;2022-09-03T10:12:03;1.00;;;0.90;;
61413;SDS011;47279;52.426;10.488;2022-09-03T10:14:33;1.42;;;0.82;;
61413;SDS011;47279;52.426;10.488;2022-09-03T10:17:04;1.20;;;1.10;;
61413;SDS011;47279;52.426;10.488;2022-09-03T10:19:39;1.08;;;0.98;;
61413;SDS011;47279;52.426;10.488;2022-09-03T10:22:13;2.35;;;1.00;;
61413;SDS011;47279;52.426;10.488;2022-09-03T10:27:14;1.63;;;1.05;;
61413;SDS011;47279;52.426;10.488;2022-09-03T10:29:41;1.13;;;0.90;;
61413;SDS011;47279;52.426;10.488;2022-09-03T10:37:33;1.17;;;0.90;;
61413;SDS011;47279;52.426;10.488;2022-09-03T10:40:21;1.67;;;1.00;;
61413;SDS011;47279;52.426;10.488;2022-09-03T10:48:20;1.27;;;1.13;;
61413;SDS011;47279;52.426;10.488;2022-09-03T11:01:31;1.10;;;0.90;;
61413;SDS011;47279;52.426;10.488;2022-09-03T11:04:06;2.22;;;0.80;;
61413;SDS011;47279;52.426;10.488;2022-09-03T11:09:20;1.42;;;1.00;;
61413;SDS011;47279;52.426;10.488;2022-09-03T11:11:52;2.45;;;1.10;;
61413;SDS011;47279;52.426;10.488;2022-09-03T11:14:24;1.85;;;0.88;;
61413;SDS011;47279;52.426;10.488;2022-09-03T11:16:54;1.67;;;1.08;;
61413;SDS011;47279;52.426;10.488;2022-09-03T11:19:26;1.20;;;0.88;;
61413;SDS011;47279;52.426;10.488;2022-09-03T11:21:57;1.33;;;1.00;;
61413;SDS011;47279;52.426;10.488;2022-09-03T11:24:23;1.50;;;1.10;;
61413;SDS011;47279;52.426;10.488;2022-09-03T11:29:32;1.48;;;1.13;;
61413;SDS011;47279;52.426;10.488;2022-09-03T11:32:08;1.45;;;0.90;;
61413;SDS011;47279;52.426;10.488;2022-09-03T11:34:46;0.77;;;0.77;;
61413;SDS011;47279;52.426;10.488;2022-09-03T11:37:20;1.00;;;0.85;;
61413;SDS011;47279;52.426;10.488;2022-09-03T11:39:53;1.30;;;0.90;;
61413;SDS011;47279;52.426;10.488;2022-09-03T11:42:26;1.52;;;1.20;;
61413;SDS011;47279;52.426;10.488;2022-09-03T11:44:52;1.65;;;0.95;;
61413;SDS011;47279;52.426;10.488;2022-09-03T11:47:36;2.13;;;0.90;;
61413;SDS011;47279;52.426;10.488;2022-09-03T11:52:51;1.50;;;0.93;;
61413;SDS011;47279;52.426;10.488;2022-09-03T11:55:25;1.45;;;0.90;;
61413;SDS011;47279;52.426;10.488;2022-09-03T11:57:51;1.45;;;0.90;;
61413;SDS011;47279;52.426;10.488;2022-09-03T12:00:17;1.50;;;1.08;;
61413;SDS011;47279;52.426;10.488;2022-09-03T12:02:56;2.05;;;1.20;;
61413;SDS011;47279;52.426;10.488;2022-09-03T12:05:29;1.67;;;0.90;;
61413;SDS011;47279;52.426;10.488;2022-09-03T12:08:15;1.15;;;0.80;;
61413;SDS011;47279;52.426;10.488;2022-09-03T12:13:44;1.42;;;0.95;;
61413;SDS011;47279;52.426;10.488;2022-09-03T12:18:52;1.98;;;1.00;;
61413;SDS011;47279;52.426;10.488;2022-09-03T12:21:19;1.35;;;0.90;;
61413;SDS011;47279;52.426;10.488;2022-09-03T12:23:47;1.45;;;0.90;;
61413;SDS011;47279;52.426;10.488;2022-09-03T12:26:17;1.70;;;1.00;;
61413;SDS011;47279;52.426;10.488;2022-09-03T12:28:45;2.25;;;1.00;;
61413;SDS011;47279;52.426;10.488;2022-09-03T12:31:21;1.42;;;1.00;;
61413;SDS011;47279;52.426;10.488;2022-09-03T12:33:55;1.85;;;1.00;;
61413;SDS011;47279;52.426;10.488;2022-09-03T12:36:23;1.23;;;1.00;;
61413;SDS011;47279;52.426;10.488;2022-09-03T12:38:49;1.17;;;1.02;;
61413;SDS011;47279;52.426;10.488;2022-09-03T12:41:22;1.42;;;1.17;;
61413;SDS011;47279;52.426;10.488;2022-09-03T12:43:51;1.25;;;1.10;;
61413;SDS011;47279;52.426;10.488;2022-09-03T12:46:17;1.23;;;1.10;;
61413;SDS011;47279;52.426;10.488;2022-09-03T12:48:57;2.15;;;1.10;;
61413;SDS011;47279;52.426;10.488;2022-09-03T12:51:31;1.20;;;1.08;;
61413;SDS011;47279;52.426;10.488;2022-09-03T12:53:58;1.75;;;1.20;;
61413;SDS011;47279;52.426;10.488;2022-09-03T12:56:25;1.52;;;0.90;;
61413;SDS011;47279;52.426;10.488;2022-09-03T12:58:55;1.40;;;0.98;;
61413;SDS011;47279;52.426;10.488;2022-09-03T13:01:26;1.27;;;1.17;;
61413;SDS011;47279;52.426;10.488;2022-09-03T13:04:02;1.52;;;1.10;;
61413;SDS011;47279;52.426;10.488;2022-09-03T13:06:38;0.90;;;0.90;;
61413;SDS011;47279;52.426;10.488;2022-09-03T13:09:08;1.00;;;0.90;;
61413;SDS011;47279;52.426;10.488;2022-09-03T13:11:35;1.45;;;1.00;;
61413;SDS011;47279;52.426;10.488;2022-09-03T13:14:08;1.55;;;0.90;;
61413;SDS011;47279;52.426;10.488;2022-09-03T13:27:01;1.10;;;1.10;;
61413;SDS011;47279;52.426;10.488;2022-09-03T13:31:58;1.50;;;1.20;;
61413;SDS011;47279;52.426;10.488;2022-09-03T13:36:55;0.95;;;0.93;;
61413;SDS011;47279;52.426;10.488;2022-09-03T13:39:29;0.95;;;0.90;;
61413;SDS011;47279;52.426;10.488;2022-09-03T13:42:12;1.95;;;0.90;;
61413;SDS011;47279;52.426;10.488;2022-09-03T13:44:49;1.60;;;1.20;;
61413;SDS011;47279;52.426;10.488;2022-09-03T13:47:38;1.27;;;0.93;;
61413;SDS011;47279;52.426;10.488;2022-09-03T13:50:25;1.23;;;0.90;;
61413;SDS011;47279;52.426;10.488;2022-09-03T13:55:24;1.08;;;0.90;;
61413;SDS011;47279;52.426;10.488;2022-09-03T13:57:58;1.40;;;1.10;;
61413;SDS011;47279;52.426;10.488;2022-09-03T14:00:28;1.10;;;0.93;;
61413;SDS011;47279;52.426;10.488;2022-09-03T14:21:00;1.10;;;1.00;;
61413;SDS011;47279;52.426;10.488;2022-09-03T14:23:33;1.20;;;1.10;;
61413;SDS011;47279;52.426;10.488;2022-09-03T14:26:02;1.10;;;1.00;;
61413;SDS011;47279;52.426;10.488;2022-09-03T14:28:43;1.10;;;0.98;;
61413;SDS011;47279;52.426;10.488;2022-09-03T14:34:12;1.88;;;1.20;;
61413;SDS011;47279;52.426;10.488;2022-09-03T14:37:01;1.08;;;0.95;;
61413;SDS011;47279;52.426;10.488;2022-09-03T14:39:33;1.67;;;1.20;;
61413;SDS011;47279;52.426;10.488;2022-09-03T14:42:08;1.10;;;0.93;;
61413;SDS011;47279;52.426;10.488;2022-09-03T15:00:02;1.08;;;0.90;;
61413;SDS011;47279;52.426;10.488;2022-09-03T15:02:45;1.20;;;1.10;;
61413;SDS011;47279;52.426;10.488;2022-09-03T15:05:20;1.10;;;1.10;;
61413;SDS011;47279;52.426;10.488;2022-09-03T15:10:31;1.17;;;1.10;;
61413;SDS011;47279;52.426;10.488;2022-09-03T15:13:07;1.10;;;1.00;;
61413;SDS011;47279;52.426;10.488;2022-09-03T15:20:52;1.23;;;1.13;;
61413;SDS011;47279;52.426;10.488;2022-09-03T15:30:48;1.50;;;1.10;;
61413;SDS011;47279;52.426;10.488;2022-09-03T15:43:29;2.88;;;1.20;;
61413;SDS011;47279;52.426;10.488;2022-09-03T15:45:57;1.83;;;1.10;;
61413;SDS011;47279;52.426;10.488;2022-09-03T15:48:33;1.52;;;1.35;;
61413;SDS011;47279;52.426;10.488;2022-09-03T15:53:55;1.63;;;1.20;;
61413;SDS011;47279;52.426;10.488;2022-09-03T15:56:33;1.38;;;1.23;;
61413;SDS011;47279;52.426;10.488;2022-09-03T15:59:07;1.27;;;1.10;;
61413;SDS011;47279;52.426;10.488;2022-09-03T16:01:43;1.67;;;1.13;;
61413;SDS011;47279;52.426;10.488;2022-09-03T16:04:17;1.63;;;1.20;;
61413;SDS011;47279;52.426;10.488;2022-09-03T16:06:56;1.65;;;1.27;;
61413;SDS011;47279;52.426;10.488;2022-09-03T16:17:31;1.23;;;1.13;;
61413;SDS011;47279;52.426;10.488;2022-09-03T16:22:47;1.67;;;1.30;;
61413;SDS011;47279;52.426;10.488;2022-09-03T16:25:15;1.95;;;1.27;;
61413;SDS011;47279;52.426;10.488;2022-09-03T16:28:04;1.30;;;1.10;;
61413;SDS011;47279;52.426;10.488;2022-09-03T16:33:01;1.58;;;1.42;;
61413;SDS011;47279;52.426;10.488;2022-09-03T16:43:14;1.67;;;1.20;;
61413;SDS011;47279;52.426;10.488;2022-09-03T16:51:11;1.60;;;1.50;;
61413;SDS011;47279;52.426;10.488;2022-09-03T16:53:45;1.80;;;1.45;;
61413;SDS011;47279;52.426;10.488;2022-09-03T16:59:04;2.95;;;1.40;;
61413;SDS011;47279;52.426;10.488;2022-09-03T17:06:50;1.63;;;1.42;;
61413;SDS011;47279;52.426;10.488;2022-09-03T17:14:50;3.92;;;1.42;;
61413;SDS011;47279;52.426;10.488;2022-09-03T17:17:22;1.80;;;1.58;;
61413;SDS011;47279;52.426;10.488;2022-09-03T17:19:52;2.95;;;1.42;;
61413;SDS011;47279;52.426;10.488;2022-09-03T17:22:32;2.13;;;1.52;;
61413;SDS011;47279;52.426;10.488;2022-09-03T17:25:03;1.60;;;1.40;;
61413;SDS011;47279;52.426;10.488;2022-09-03T17:30:27;1.55;;;1.38;;
61413;SDS011;47279;52.426;10.488;2022-09-03T17:33:06;2.17;;;1.65;;
61413;SDS011;47279;52.426;10.488;2022-09-03T17:35:53;2.35;;;1.48;;
61413;SDS011;47279;52.426;10.488;2022-09-03T17:38:37;1.90;;;1.33;;
61413;SDS011;47279;52.426;10.488;2022-09-03T17:48:43;1.48;;;1.38;;
61413;SDS011;47279;52.426;10.488;2022-09-03T17:51:23;2.72;;;2.10;;
61413;SDS011;47279;52.426;10.488;2022-09-03T17:53:55;1.92;;;1.73;;
61413;SDS011;47279;52.426;10.488;2022-09-03T17:56:26;1.95;;;1.45;;
61413;SDS011;47279;52.426;10.488;2022-09-03T17:59:04;1.55;;;1.40;;
61413;SDS011;47279;52.426;10.488;2022-09-03T18:01:34;2.08;;;1.67;;
61413;SDS011;47279;52.426;10.488;2022-09-03T18:04:10;1.67;;;1.40;;
61413;SDS011;47279;52.426;10.488;2022-09-03T18:09:06;2.60;;;1.77;;
61413;SDS011;47279;52.426;10.488;2022-09-03T18:11:34;2.33;;;1.50;;
61413;SDS011;47279;52.426;10.488;2022-09-03T18:16:54;1.70;;;1.60;;
61413;SDS011;47279;52.426;10.488;2022-09-03T18:19:35;1.83;;;1.35;;
61413;SDS011;47279;52.426;10.488;2022-09-03T18:22:21;2.00;;;1.80;;
61413;SDS011;47279;52.426;10.488;2022-09-03T18:25:10;1.70;;;1.60;;
61413;SDS011;47279;52.426;10.488;2022-09-03T18:27:57;1.83;;;1.60;;
61413;SDS011;47279;52.426;10.488;2022-09-03T18:30:43;2.38;;;1.83;;
61413;SDS011;47279;52.426;10.488;2022-09-03T18:33:27;2.05;;;1.80;;
61413;SDS011;47279;52.426;10.488;2022-09-03T18:36:12;2.15;;;1.60;;
61413;SDS011;47279;52.426;10.488;2022-09-03T18:39:01;1.52;;;1.42;;
61413;SDS011;47279;52.426;10.488;2022-09-03T18:47:44;3.78;;;1.80;;
61413;SDS011;47279;52.426;10.488;2022-09-03T18:50:34;3.80;;;1.88;;
61413;SDS011;47279;52.426;10.488;2022-09-03T18:56:34;2.10;;;1.60;;
61413;SDS011;47279;52.426;10.488;2022-09-03T18:59:31;1.88;;;1.48;;
61413;SDS011;47279;52.426;10.488;2022-09-03T19:02:26;1.88;;;1.70;;